Time;durP1;ratioP1;P1;durP2;ratioP2;P2;SDS_P1;SDS_P2;PMS_P1;PMS_P2;Temp;Humidity;BMP_temperature;BMP_pressure;BME280_temperature;BME280_humidity;BME280_pressure;Samples;Min_cycle;Max_cycle;Signal;HPM_P1;HPM_P2
2023/08/24 00:00:45;;;;;;;2.57;2.00;;;24.50;67.40;;;;;;4919787;29;20960;-69
2023/08/24 00:03:13;;;;;;;2.57;2.00;;;24.50;67.60;;;;;;4919885;29;20472;-69
2023/08/24 00:05:40;;;;;;;2.37;2.07;;;24.50;67.70;;;;;;4919959;29;20860;-69
2023/08/24 00:08:07;;;;;;;3.23;2.40;;;24.50;67.80;;;;;;4919924;29;20448;-69
2023/08/24 00:10:34;;;;;;;2.77;1.80;;;24.40;67.90;;;;;;4919887;29;20500;-69
2023/08/24 00:13:01;;;;;;;2.53;2.17;;;24.40;68.10;;;;;;4919743;29;20539;-69
2023/08/24 00:15:28;;;;;;;2.80;2.13;;;24.40;68.10;;;;;;4919819;29;20540;-69
2023/08/24 00:17:55;;;;;;;8.13;2.50;;;24.40;68.10;;;;;;4919685;29;20484;-69
2023/08/24 00:20:23;;;;;;;2.93;2.20;;;24.30;68.10;;;;;;4919748;29;20489;-69
2023/08/24 00:22:50;;;;;;;2.20;1.70;;;24.20;68.10;;;;;;4919483;29;20493;-69
2023/08/24 00:25:18;;;;;;;2.50;2.00;;;24.00;68.70;;;;;;4919652;29;20444;-69
2023/08/24 00:27:44;;;;;;;4.20;2.00;;;24.00;69.00;;;;;;4919311;29;20962;-70
2023/08/24 00:30:12;;;;;;;2.60;2.10;;;24.00;68.90;;;;;;4919588;29;20548;-70
2023/08/24 00:32:38;;;;;;;3.47;2.57;;;24.00;68.80;;;;;;4919263;29;20484;-70
2023/08/24 00:35:06;;;;;;;3.27;2.17;;;24.10;68.80;;;;;;4919473;29;20480;-69
2023/08/24 00:37:35;;;;;;;4.93;2.40;;;24.10;68.90;;;;;;4919348;29;20905;-69
2023/08/24 00:40:04;;;;;;;3.27;2.47;;;24.10;68.90;;;;;;4919390;29;20455;-69
2023/08/24 00:42:31;;;;;;;2.90;2.27;;;24.10;68.80;;;;;;4919277;29;20504;-70
2023/08/24 00:44:58;;;;;;;2.70;2.10;;;24.10;68.60;;;;;;4919338;29;20449;-69
2023/08/24 00:47:25;;;;;;;3.50;2.50;;;24.10;68.60;;;;;;4918927;29;20946;-69
2023/08/24 00:49:52;;;;;;;3.13;2.30;;;24.10;68.60;;;;;;4919225;29;20504;-69
2023/08/24 00:52:19;;;;;;;4.50;3.20;;;23.70;69.50;;;;;;4919100;29;20468;-69
2023/08/24 00:54:48;;;;;;;3.27;2.93;;;23.20;71.00;;;;;;4919126;29;20449;-69
2023/08/24 00:57:15;;;;;;;3.43;2.50;;;23.20;71.20;;;;;;4919035;29;20445;-70
2023/08/24 00:59:42;;;;;;;2.70;2.30;;;23.20;70.90;;;;;;4918737;29;20969;-68
2023/08/24 01:02:09;;;;;;;3.37;2.50;;;23.40;70.70;;;;;;4918908;29;20464;-68
2023/08/24 01:04:36;;;;;;;2.77;2.40;;;23.40;70.70;;;;;;4918678;29;20456;-68
2023/08/24 01:07:02;;;;;;;3.50;2.47;;;23.30;70.90;;;;;;4918537;29;20807;-68
2023/08/24 01:09:29;;;;;;;3.40;2.37;;;23.40;70.50;;;;;;4918891;29;20441;-68
2023/08/24 01:12:06;;;;;;;2.77;2.57;;;23.40;70.50;;;;;;4918705;29;20508;-68
2023/08/24 01:14:41;;;;;;;3.50;2.53;;;23.30;70.70;;;;;;4918769;29;20444;-67
2023/08/24 01:17:12;;;;;;;3.60;2.50;;;23.30;70.80;;;;;;4918698;29;20433;-68
2023/08/24 01:19:42;;;;;;;2.37;2.07;;;23.40;70.80;;;;;;4918675;29;20584;-68
2023/08/24 01:22:28;;;;;;;3.93;2.47;;;23.40;70.60;;;;;;4918519;29;20469;-68
2023/08/24 01:25:05;;;;;;;3.10;2.40;;;23.40;70.70;;;;;;4918598;29;20437;-68
2023/08/24 01:27:35;;;;;;;2.77;2.10;;;23.40;70.60;;;;;;4918232;29;20437;-68
2023/08/24 01:30:03;;;;;;;3.37;2.30;;;23.40;70.70;;;;;;4918458;29;20484;-67
2023/08/24 01:32:31;;;;;;;3.27;2.27;;;23.30;71.10;;;;;;4918147;29;20489;-68
2023/08/24 01:34:57;;;;;;;3.47;2.40;;;23.30;71.30;;;;;;4917800;29;20456;-68
2023/08/24 01:37:24;;;;;;;7.10;2.37;;;23.30;71.30;;;;;;4918302;29;20500;-68
2023/08/24 01:39:58;;;;;;;2.47;2.27;;;23.30;71.30;;;;;;4918221;29;20492;-68
2023/08/24 01:42:30;;;;;;;2.87;2.50;;;23.40;71.20;;;;;;4918196;29;20467;-67
2023/08/24 01:45:00;;;;;;;3.37;2.73;;;23.40;71.20;;;;;;4918235;29;20497;-68
2023/08/24 01:47:29;;;;;;;3.60;2.53;;;23.50;71.10;;;;;;4918158;29;20429;-68
2023/08/24 01:49:56;;;;;;;3.93;2.57;;;23.50;71.00;;;;;;4918150;29;20441;-68
2023/08/24 01:52:24;;;;;;;3.53;3.23;;;23.50;71.10;;;;;;4917998;29;20468;-68
2023/08/24 01:54:51;;;;;;;2.90;2.60;;;23.50;71.00;;;;;;4918072;29;20449;-68
2023/08/24 01:57:18;;;;;;;2.70;2.50;;;23.50;71.00;;;;;;4917974;29;20448;-67
2023/08/24 01:59:44;;;;;;;3.60;3.07;;;23.50;70.80;;;;;;4917861;29;20484;-68
2023/08/24 02:02:12;;;;;;;3.00;2.43;;;23.50;70.70;;;;;;4917791;29;20469;-68
2023/08/24 02:04:39;;;;;;;3.53;2.73;;;23.30;71.30;;;;;;4918101;29;20460;-68
2023/08/24 02:07:06;;;;;;;5.50;3.90;;;23.30;71.30;;;;;;4918150;29;20456;-68
2023/08/24 02:09:32;;;;;;;2.97;2.50;;;23.40;71.20;;;;;;4918097;29;20445;-68
2023/08/24 02:11:59;;;;;;;5.60;2.50;;;23.40;71.10;;;;;;4918530;29;20448;-68
2023/08/24 02:14:26;;;;;;;2.90;2.30;;;23.40;71.10;;;;;;4918469;29;20501;-68
2023/08/24 02:16:52;;;;;;;5.00;2.53;;;23.40;70.90;;;;;;4917767;29;20449;-67
2023/08/24 02:19:20;;;;;;;2.90;2.20;;;23.40;70.80;;;;;;4917860;29;20516;-68
2023/08/24 02:21:47;;;;;;;3.07;2.77;;;23.30;70.80;;;;;;4920026;29;20448;-68
2023/08/24 02:24:14;;;;;;;2.67;2.17;;;23.40;70.80;;;;;;4921280;29;20456;-68
2023/08/24 02:26:40;;;;;;;2.80;2.50;;;23.30;70.80;;;;;;4917824;29;20445;-68
2023/08/24 02:29:08;;;;;;;2.97;2.47;;;23.30;70.90;;;;;;4917694;29;20453;-67
2023/08/24 02:31:34;;;;;;;3.47;2.60;;;23.30;70.90;;;;;;4917662;29;20448;-68
2023/08/24 02:34:02;;;;;;;3.83;2.50;;;23.30;71.20;;;;;;4916948;29;20484;-68
2023/08/24 02:36:32;;;;;;;2.53;2.13;;;23.30;71.20;;;;;;4917426;29;20456;-68
2023/08/24 02:38:59;;;;;;;3.17;2.50;;;23.30;71.20;;;;;;4917874;29;20508;-68
2023/08/24 02:41:26;;;;;;;3.23;2.80;;;23.20;71.30;;;;;;4916960;29;20827;-68
2023/08/24 02:43:53;;;;;;;4.20;2.70;;;23.20;71.50;;;;;;4917241;29;20885;-68
2023/08/24 02:46:22;;;;;;;4.13;2.60;;;23.20;71.60;;;;;;4917421;29;20508;-68
2023/08/24 02:48:49;;;;;;;2.70;2.50;;;23.20;71.60;;;;;;4916888;29;20444;-68
2023/08/24 02:51:16;;;;;;;2.40;2.10;;;23.20;71.60;;;;;;4917226;29;20444;-68
2023/08/24 02:53:44;;;;;;;3.73;2.70;;;23.20;71.70;;;;;;4917107;29;20468;-68
2023/08/24 02:56:10;;;;;;;3.10;2.43;;;23.10;71.90;;;;;;4917151;29;20480;-68
2023/08/24 02:58:37;;;;;;;2.43;1.93;;;23.00;72.00;;;;;;4917341;29;20516;-68
2023/08/24 03:01:06;;;;;;;3.30;3.00;;;23.00;72.10;;;;;;4917102;29;20452;-68
2023/08/24 03:03:33;;;;;;;4.23;2.67;;;23.00;72.10;;;;;;4916990;29;20483;-68
2023/08/24 03:06:02;;;;;;;2.93;2.63;;;23.10;72.30;;;;;;4916933;29;20460;-68
2023/08/24 03:08:30;;;;;;;3.97;2.50;;;23.10;72.20;;;;;;4916739;29;20965;-68
2023/08/24 03:10:58;;;;;;;3.47;2.23;;;23.10;72.20;;;;;;4916985;29;20448;-68
2023/08/24 03:13:25;;;;;;;3.10;2.80;;;22.90;72.70;;;;;;4916884;29;20473;-68
2023/08/24 03:15:52;;;;;;;3.53;2.67;;;22.60;73.50;;;;;;4916963;29;20448;-68
2023/08/24 03:18:20;;;;;;;4.27;2.70;;;22.70;73.50;;;;;;4916891;29;20531;-68
2023/08/24 03:20:48;;;;;;;4.00;2.70;;;22.70;73.40;;;;;;4916624;29;20452;-68
2023/08/24 03:23:15;;;;;;;2.70;2.40;;;22.80;73.10;;;;;;4916840;29;20472;-68
2023/08/24 03:25:43;;;;;;;3.00;2.70;;;22.90;73.00;;;;;;4917382;29;20452;-68
2023/08/24 03:28:11;;;;;;;3.87;2.80;;;23.00;72.90;;;;;;4916822;29;20448;-68
2023/08/24 03:30:40;;;;;;;3.23;2.93;;;23.00;72.80;;;;;;4916852;29;20836;-68
2023/08/24 03:33:06;;;;;;;3.50;2.83;;;23.00;72.70;;;;;;4916442;29;20477;-68
2023/08/24 03:35:34;;;;;;;2.93;2.60;;;23.10;72.90;;;;;;4916778;29;20452;-68
2023/08/24 03:38:00;;;;;;;2.90;2.50;;;23.10;72.90;;;;;;4916767;29;20445;-68
2023/08/24 03:40:27;;;;;;;3.40;3.10;;;23.10;72.70;;;;;;4916664;29;20539;-68
2023/08/24 03:42:54;;;;;;;3.00;2.67;;;23.10;72.60;;;;;;4916695;29;20465;-68
2023/08/24 03:45:22;;;;;;;3.47;2.77;;;23.10;72.50;;;;;;4916737;29;20504;-68
2023/08/24 03:47:49;;;;;;;5.70;2.87;;;23.10;72.60;;;;;;4916643;29;20452;-68
2023/08/24 03:50:16;;;;;;;3.40;2.63;;;23.10;72.60;;;;;;4916676;29;20448;-67
2023/08/24 03:52:43;;;;;;;3.77;3.00;;;23.00;73.00;;;;;;4916558;29;20464;-68
2023/08/24 03:55:10;;;;;;;3.20;2.70;;;23.00;73.30;;;;;;4916644;29;20504;-67
2023/08/24 03:57:37;;;;;;;4.17;2.57;;;23.00;73.30;;;;;;4916613;29;20453;-67
2023/08/24 04:00:05;;;;;;;3.30;2.57;;;23.10;73.20;;;;;;4919840;29;20575;-68
2023/08/24 04:02:33;;;;;;;6.00;3.57;;;23.10;73.10;;;;;;4919714;29;20480;-68
2023/08/24 04:05:00;;;;;;;3.03;2.60;;;23.10;73.20;;;;;;4920008;29;20444;-68
2023/08/24 04:07:27;;;;;;;3.43;3.00;;;23.20;73.20;;;;;;4920001;29;20453;-68
2023/08/24 04:09:53;;;;;;;3.90;3.03;;;23.20;73.20;;;;;;4919908;29;20445;-68
2023/08/24 04:12:20;;;;;;;3.57;2.63;;;23.20;73.00;;;;;;4919835;29;20516;-68
2023/08/24 04:14:47;;;;;;;3.80;2.70;;;23.20;72.80;;;;;;4919908;29;20453;-68
2023/08/24 04:17:13;;;;;;;4.50;2.97;;;23.20;72.70;;;;;;4919807;29;20449;-68
2023/08/24 04:19:41;;;;;;;4.03;3.30;;;23.30;72.70;;;;;;4919428;29;20480;-68
2023/08/24 04:22:08;;;;;;;2.90;2.70;;;23.30;72.80;;;;;;4919526;29;20909;-68
2023/08/24 04:24:35;;;;;;;3.10;2.80;;;23.20;73.10;;;;;;4919631;29;20862;-68
2023/08/24 04:27:01;;;;;;;3.17;2.83;;;23.20;72.90;;;;;;4919241;29;20829;-68
2023/08/24 04:29:28;;;;;;;5.07;3.50;;;23.20;73.20;;;;;;4919402;29;20467;-68
2023/08/24 04:31:55;;;;;;;4.43;3.27;;;23.20;73.20;;;;;;4919343;29;20535;-68
2023/08/24 04:34:21;;;;;;;3.40;3.10;;;23.20;73.10;;;;;;4919523;29;20437;-68
2023/08/24 04:36:50;;;;;;;3.70;3.40;;;23.20;73.20;;;;;;4919480;29;20448;-68
2023/08/24 04:39:18;;;;;;;4.33;3.73;;;23.20;73.30;;;;;;4919396;29;20488;-68
2023/08/24 04:41:45;;;;;;;4.20;3.80;;;23.20;73.30;;;;;;4919294;29;20512;-68
2023/08/24 04:44:11;;;;;;;3.30;3.00;;;23.20;73.40;;;;;;4919332;29;20457;-68
2023/08/24 04:46:38;;;;;;;4.67;4.20;;;23.20;73.50;;;;;;4919261;29;20452;-68
2023/08/24 04:49:05;;;;;;;3.57;3.10;;;23.20;73.70;;;;;;4919234;29;20452;-67
2023/08/24 04:51:31;;;;;;;3.50;3.20;;;23.20;73.60;;;;;;4919278;29;20448;-68
2023/08/24 04:53:59;;;;;;;3.77;3.33;;;23.20;73.60;;;;;;4919096;29;20464;-68
2023/08/24 04:56:26;;;;;;;4.10;3.07;;;23.20;73.70;;;;;;4919081;29;20504;-68
2023/08/24 04:58:55;;;;;;;4.50;3.40;;;23.20;73.80;;;;;;4918997;29;20574;-68
2023/08/24 05:01:21;;;;;;;3.50;3.20;;;23.20;73.70;;;;;;4918761;29;20535;-68
2023/08/24 05:03:48;;;;;;;4.60;3.43;;;23.20;73.60;;;;;;4918909;29;20529;-68
2023/08/24 05:06:15;;;;;;;5.10;2.60;;;23.30;73.50;;;;;;4918914;29;20512;-68
2023/08/24 05:08:41;;;;;;;3.30;3.00;;;23.30;73.30;;;;;;4918913;29;20445;-68
2023/08/24 05:11:13;;;;;;;3.30;3.00;;;23.30;73.60;;;;;;4917843;29;20449;-68
2023/08/24 05:13:40;;;;;;;5.10;3.90;;;23.40;73.60;;;;;;4918877;29;20838;-68
2023/08/24 05:16:07;;;;;;;3.33;2.90;;;23.40;73.80;;;;;;4918791;29;20874;-67
2023/08/24 05:18:36;;;;;;;4.00;3.40;;;23.40;73.70;;;;;;4918773;29;20511;-68
2023/08/24 05:21:03;;;;;;;4.30;3.43;;;23.40;73.60;;;;;;4918353;29;20582;-68
2023/08/24 05:23:30;;;;;;;3.30;3.00;;;23.40;73.50;;;;;;4918582;29;20472;-68
2023/08/24 05:25:57;;;;;;;4.03;3.17;;;23.50;73.20;;;;;;4918643;29;20520;-67
2023/08/24 05:28:25;;;;;;;4.07;3.73;;;23.50;73.00;;;;;;4918578;29;20445;-68
2023/08/24 05:30:52;;;;;;;3.50;3.10;;;23.60;72.70;;;;;;4918574;29;20497;-68
2023/08/24 05:33:20;;;;;;;4.07;3.57;;;23.70;72.50;;;;;;4918012;29;20599;-68
2023/08/24 05:35:46;;;;;;;4.33;3.27;;;23.80;72.50;;;;;;4918375;29;20448;-68
2023/08/24 05:38:13;;;;;;;3.73;2.93;;;23.70;72.20;;;;;;4918342;29;20452;-68
2023/08/24 05:40:42;;;;;;;4.47;3.80;;;23.60;72.40;;;;;;4918295;29;20571;-68
2023/08/24 05:43:09;;;;;;;4.53;3.70;;;23.70;72.60;;;;;;4918192;29;20475;-68
2023/08/24 05:45:39;;;;;;;3.77;3.43;;;23.80;72.40;;;;;;4918230;29;20449;-70
2023/08/24 05:48:06;;;;;;;3.87;3.57;;;23.80;72.40;;;;;;4918171;29;20456;-69
2023/08/24 05:50:33;;;;;;;4.80;3.43;;;23.90;72.20;;;;;;4918152;29;20452;-69
2023/08/24 05:53:00;;;;;;;3.33;3.03;;;23.80;72.40;;;;;;4917791;29;20993;-71
2023/08/24 05:55:27;;;;;;;4.13;3.60;;;23.90;72.40;;;;;;4917727;29;20457;-70
2023/08/24 05:57:53;;;;;;;3.97;3.63;;;23.80;72.20;;;;;;4917709;29;20997;-70
2023/08/24 06:00:22;;;;;;;4.20;3.70;;;23.80;72.70;;;;;;4917505;29;20975;-70
2023/08/24 06:02:50;;;;;;;4.30;3.43;;;23.60;72.70;;;;;;4917872;29;20472;-70
2023/08/24 06:05:17;;;;;;;3.50;3.20;;;23.50;73.10;;;;;;4917879;29;20449;-70
2023/08/24 06:07:45;;;;;;;3.80;3.33;;;23.60;73.20;;;;;;4917864;29;20455;-70
2023/08/24 06:10:12;;;;;;;3.77;3.47;;;23.70;72.70;;;;;;4917807;29;20444;-70
2023/08/24 06:12:40;;;;;;;3.30;3.00;;;23.60;73.30;;;;;;4918216;29;20476;-70
2023/08/24 06:15:09;;;;;;;3.70;3.17;;;23.60;73.00;;;;;;4917701;29;20460;-68
2023/08/24 06:17:36;;;;;;;3.50;3.20;;;23.80;72.90;;;;;;4917642;29;20539;-67
2023/08/24 06:20:04;;;;;;;3.90;3.13;;;23.80;72.40;;;;;;4917511;29;20481;-67
2023/08/24 06:22:31;;;;;;;3.07;2.77;;;23.60;72.10;;;;;;4917258;29;20480;-68
2023/08/24 06:24:59;;;;;;;3.47;2.60;;;23.70;72.20;;;;;;4917421;29;20452;-69
2023/08/24 06:27:26;;;;;;;5.00;3.17;;;23.80;71.90;;;;;;4917442;29;20453;-68
2023/08/24 06:29:53;;;;;;;3.17;2.73;;;23.90;71.60;;;;;;4917381;29;20512;-68
2023/08/24 06:32:19;;;;;;;2.80;2.50;;;24.00;71.20;;;;;;4916849;29;20483;-68
2023/08/24 06:34:46;;;;;;;5.50;2.83;;;24.10;71.60;;;;;;4917074;29;20448;-68
2023/08/24 06:37:14;;;;;;;2.87;2.57;;;24.20;71.20;;;;;;4917267;29;20818;-69
2023/08/24 06:39:41;;;;;;;2.70;2.50;;;24.20;71.10;;;;;;4917205;29;20488;-69
2023/08/24 06:42:07;;;;;;;4.30;2.63;;;24.30;71.10;;;;;;4916784;29;20903;-69
2023/08/24 06:44:34;;;;;;;2.93;2.40;;;24.40;71.20;;;;;;4916882;29;20464;-69
2023/08/24 06:47:01;;;;;;;3.30;2.50;;;24.40;71.10;;;;;;4917045;29;20459;-70
2023/08/24 06:49:27;;;;;;;3.73;2.27;;;24.50;71.20;;;;;;4917094;29;20448;-70
2023/08/24 06:51:54;;;;;;;3.87;3.47;;;24.50;71.10;;;;;;4916941;29;20861;-70
2023/08/24 06:54:22;;;;;;;3.03;2.57;;;24.50;71.00;;;;;;4917013;29;20487;-69
2023/08/24 06:56:49;;;;;;;3.30;3.00;;;24.60;71.20;;;;;;4916694;29;20973;-68
2023/08/24 06:59:16;;;;;;;3.53;3.00;;;24.60;71.30;;;;;;4916489;29;20942;-68
2023/08/24 07:01:42;;;;;;;4.53;3.10;;;24.70;71.60;;;;;;4916928;29;20460;-67
2023/08/24 07:04:09;;;;;;;3.20;2.70;;;24.70;71.80;;;;;;4916655;29;20445;-69
2023/08/24 07:06:36;;;;;;;5.80;2.83;;;24.70;71.40;;;;;;4916911;29;20440;-68
2023/08/24 07:09:06;;;;;;;4.97;3.30;;;24.70;72.00;;;;;;4916660;29;20831;-68
2023/08/24 07:11:34;;;;;;;4.07;2.97;;;24.70;72.20;;;;;;4916819;29;20449;-68
2023/08/24 07:14:01;;;;;;;3.43;3.03;;;24.50;72.10;;;;;;4916751;29;20527;-68
2023/08/24 07:16:27;;;;;;;3.77;3.17;;;24.60;71.80;;;;;;4916830;29;20449;-68
2023/08/24 07:18:54;;;;;;;3.97;2.70;;;24.80;72.30;;;;;;4916785;29;20452;-68
2023/08/24 07:21:21;;;;;;;2.90;2.43;;;24.90;70.80;;;;;;4916712;29;20499;-68
2023/08/24 07:23:47;;;;;;;4.17;2.93;;;25.10;70.30;;;;;;4916288;29;20524;-68
2023/08/24 07:26:14;;;;;;;3.33;2.47;;;25.10;69.50;;;;;;4917136;29;20452;-68
2023/08/24 07:28:42;;;;;;;4.23;3.13;;;24.90;69.60;;;;;;4916936;29;20445;-68
2023/08/24 07:31:10;;;;;;;3.67;2.60;;;24.90;69.50;;;;;;4916453;29;20451;-68
2023/08/24 07:33:37;;;;;;;3.33;2.63;;;25.00;69.50;;;;;;4917710;29;20484;-69
2023/08/24 07:36:04;;;;;;;4.40;2.60;;;25.10;69.60;;;;;;4920508;29;20879;-68
2023/08/24 07:38:31;;;;;;;3.47;3.17;;;25.40;68.50;;;;;;4920494;29;20451;-69
2023/08/24 07:40:58;;;;;;;2.73;2.33;;;25.60;68.50;;;;;;4920353;29;20584;-68
2023/08/24 07:43:25;;;;;;;2.77;2.43;;;25.50;68.80;;;;;;4920313;29;20473;-69
2023/08/24 07:45:53;;;;;;;3.00;2.33;;;25.90;68.00;;;;;;4920386;29;20534;-68
2023/08/24 07:48:19;;;;;;;3.90;2.40;;;25.80;67.90;;;;;;4920032;29;20869;-68
2023/08/24 07:50:46;;;;;;;3.27;2.47;;;26.30;67.90;;;;;;4919943;29;20444;-68
2023/08/24 07:53:13;;;;;;;4.83;2.47;;;26.70;67.40;;;;;;4920153;29;20475;-68
2023/08/24 07:55:40;;;;;;;3.40;2.30;;;27.10;65.80;;;;;;4920187;29;20444;-68
2023/08/24 07:58:07;;;;;;;3.90;2.10;;;27.40;64.40;;;;;;4919825;29;20961;-68
2023/08/24 08:00:34;;;;;;;4.23;2.80;;;27.70;64.40;;;;;;4920055;29;20484;-68
2023/08/24 08:03:02;;;;;;;3.80;2.27;;;27.80;64.10;;;;;;4919923;29;20476;-68
2023/08/24 08:05:29;;;;;;;3.20;2.10;;;27.80;63.80;;;;;;4920024;29;20457;-68
2023/08/24 08:07:55;;;;;;;2.77;2.00;;;27.60;64.70;;;;;;4920026;29;20448;-68
2023/08/24 08:10:22;;;;;;;2.53;1.93;;;27.60;64.10;;;;;;4919625;29;20819;-68
2023/08/24 08:12:49;;;;;;;3.47;2.47;;;27.50;63.90;;;;;;4919782;29;20471;-68
2023/08/24 08:15:16;;;;;;;3.80;2.20;;;27.50;65.10;;;;;;4919908;29;20444;-68
2023/08/24 08:17:43;;;;;;;4.00;2.00;;;27.50;64.80;;;;;;4919560;29;20869;-68
2023/08/24 08:20:12;;;;;;;3.20;2.17;;;27.80;64.10;;;;;;4919877;29;20489;-68
2023/08/24 08:22:39;;;;;;;2.57;1.90;;;28.00;64.20;;;;;;4919892;29;20503;-68
2023/08/24 08:25:06;;;;;;;2.83;1.97;;;28.20;63.60;;;;;;4919783;29;20476;-69
2023/08/24 08:27:33;;;;;;;2.73;2.13;;;28.50;63.50;;;;;;4920026;29;20791;-68
2023/08/24 08:30:00;;;;;;;3.07;2.17;;;28.90;62.50;;;;;;4919837;29;20525;-68
2023/08/24 08:32:27;;;;;;;2.23;1.70;;;29.20;61.20;;;;;;4919444;29;20484;-68
2023/08/24 08:34:54;;;;;;;2.70;2.20;;;29.40;60.40;;;;;;4919636;29;20540;-68
2023/08/24 08:37:22;;;;;;;2.90;2.13;;;29.30;61.10;;;;;;4919843;29;20531;-68
2023/08/24 08:39:49;;;;;;;3.27;2.17;;;29.00;61.30;;;;;;4919374;29;20452;-68
2023/08/24 08:42:16;;;;;;;3.00;2.10;;;28.90;61.70;;;;;;4919091;29;20468;-69
2023/08/24 08:44:46;;;;;;;3.27;2.37;;;28.80;62.20;;;;;;4934290;23;20560;-74
2023/08/24 08:47:13;;;;;;;2.43;2.20;;;28.70;61.50;;;;;;4919321;29;20958;-73
2023/08/24 08:49:40;;;;;;;2.37;2.03;;;28.60;62.90;;;;;;4919414;29;20448;-75
2023/08/24 08:52:07;;;;;;;3.30;2.57;;;28.50;63.00;;;;;;4919501;29;20500;-73
2023/08/24 08:54:35;;;;;;;2.90;2.23;;;28.90;63.50;;;;;;4918832;29;21203;-74
2023/08/24 08:57:03;;;;;;;4.50;2.40;;;29.10;62.70;;;;;;4919128;29;20499;-72
2023/08/24 08:59:30;;;;;;;2.80;2.30;;;29.40;61.80;;;;;;4919205;29;20448;-73
2023/08/24 09:01:57;;;;;;;2.77;2.10;;;29.50;60.00;;;;;;4919264;29;20491;-73
2023/08/24 09:04:25;;;;;;;2.70;2.13;;;29.20;61.70;;;;;;4919371;29;20449;-74
2023/08/24 09:06:52;;;;;;;2.43;2.07;;;29.20;61.60;;;;;;4919334;29;20540;-72
2023/08/24 09:09:19;;;;;;;2.70;2.10;;;29.30;61.20;;;;;;4919150;29;20485;-73
2023/08/24 09:11:48;;;;;;;3.43;2.50;;;29.20;61.80;;;;;;4919373;29;20448;-72
2023/08/24 09:14:15;;;;;;;3.33;2.07;;;29.20;60.80;;;;;;4919018;29;21014;-74
2023/08/24 09:16:42;;;;;;;2.70;2.07;;;29.00;61.60;;;;;;4919262;29;20445;-74
2023/08/24 09:19:12;;;;;;;2.77;2.57;;;29.00;61.90;;;;;;4919103;29;20472;-73
2023/08/24 09:21:41;;;;;;;3.60;2.23;;;29.10;60.90;;;;;;4919144;29;20536;-73
2023/08/24 09:24:09;;;;;;;4.80;2.23;;;29.00;61.20;;;;;;4918991;29;20878;-73
2023/08/24 09:26:42;;;;;;;2.57;1.90;;;29.20;61.00;;;;;;4918774;29;20898;-73
2023/08/24 09:29:13;;;;;;;2.77;1.97;;;29.20;61.60;;;;;;4918762;29;20468;-75
2023/08/24 09:31:43;;;;;;;2.23;2.03;;;29.00;63.00;;;;;;4918610;29;20499;-75
2023/08/24 09:34:10;;;;;;;2.83;2.10;;;29.10;63.40;;;;;;4918485;29;20448;-75
2023/08/24 09:36:38;;;;;;;5.17;2.77;;;29.20;61.70;;;;;;4918529;29;20480;-76
2023/08/24 09:39:05;;;;;;;3.60;2.50;;;29.00;62.50;;;;;;4918557;29;20460;-75
2023/08/24 09:41:40;;;;;;;4.77;2.30;;;29.10;61.70;;;;;;4918398;29;20481;-75
2023/08/24 09:44:07;;;;;;;3.73;2.40;;;29.10;61.60;;;;;;4918477;29;20492;-74
2023/08/24 09:46:35;;;;;;;3.70;2.80;;;29.10;61.50;;;;;;4917928;29;20476;-74
2023/08/24 09:49:02;;;;;;;3.17;2.67;;;29.30;61.90;;;;;;4918256;29;20528;-74
2023/08/24 09:51:29;;;;;;;2.50;1.90;;;29.50;61.80;;;;;;4918359;29;20447;-75
2023/08/24 09:53:58;;;;;;;4.70;2.80;;;29.60;61.80;;;;;;4918401;29;20881;-74
2023/08/24 09:56:28;;;;;;;2.90;2.27;;;29.50;61.60;;;;;;4917529;29;20552;-74
2023/08/24 09:58:55;;;;;;;3.27;2.60;;;29.60;61.40;;;;;;4917993;29;20515;-74
2023/08/24 10:01:24;;;;;;;2.93;2.27;;;29.40;61.30;;;;;;4917949;29;20575;-76
2023/08/24 10:03:55;;;;;;;2.53;2.03;;;29.60;61.30;;;;;;4917993;29;20460;-74
2023/08/24 10:06:24;;;;;;;3.47;2.30;;;29.40;62.00;;;;;;4917707;29;20816;-75
2023/08/24 10:08:55;;;;;;;2.97;2.20;;;29.20;61.60;;;;;;4917969;29;20485;-74
2023/08/24 10:11:29;;;;;;;3.57;2.20;;;29.20;62.60;;;;;;4918024;29;20440;-74
2023/08/24 10:14:02;;;;;;;3.20;2.30;;;29.40;62.80;;;;;;4917577;29;20488;-74
2023/08/24 10:16:30;;;;;;;2.70;2.50;;;29.50;62.20;;;;;;4917696;29;20468;-74
2023/08/24 10:18:59;;;;;;;3.70;2.50;;;29.60;62.60;;;;;;4917602;29;20448;-74
2023/08/24 10:21:29;;;;;;;4.30;2.60;;;29.70;61.60;;;;;;4917564;29;20512;-75
2023/08/24 10:23:57;;;;;;;3.37;2.80;;;29.60;62.40;;;;;;4918108;29;20489;-74
2023/08/24 10:26:24;;;;;;;4.30;3.40;;;29.70;62.40;;;;;;4917476;29;20524;-76
2023/08/24 10:28:51;;;;;;;3.10;2.80;;;29.70;62.90;;;;;;4918327;29;20785;-74
2023/08/24 10:31:18;;;;;;;2.87;2.27;;;30.00;62.70;;;;;;4917485;29;20460;-74
2023/08/24 10:33:46;;;;;;;3.60;2.50;;;30.00;62.50;;;;;;4917405;29;20449;-73
2023/08/24 10:36:15;;;;;;;3.00;2.33;;;30.20;62.30;;;;;;4917341;29;20476;-75
2023/08/24 10:38:42;;;;;;;5.10;3.03;;;30.30;62.00;;;;;;4917372;29;20460;-75
2023/08/24 10:41:12;;;;;;;3.27;2.30;;;30.50;61.50;;;;;;4917325;29;20532;-75
2023/08/24 10:43:40;;;;;;;3.40;2.57;;;30.70;61.70;;;;;;4917659;29;20452;-76
2023/08/24 10:46:13;;;;;;;2.77;2.17;;;30.80;61.30;;;;;;4916938;29;20967;-75
2023/08/24 10:48:59;;;;;;;5.10;2.53;;;30.80;61.90;;;;;;4917261;29;20425;-75
2023/08/24 10:51:28;;;;;;;2.67;2.47;;;30.90;61.30;;;;;;4918018;29;20535;-75
2023/08/24 10:53:58;;;;;;;3.43;2.60;;;30.80;62.20;;;;;;4917379;29;20448;-74
2023/08/24 10:56:33;;;;;;;3.37;2.83;;;30.80;61.10;;;;;;4917329;29;20532;-76
2023/08/24 10:59:13;;;;;;;3.03;2.63;;;30.70;62.20;;;;;;4917139;29;20436;-75
2023/08/24 11:01:41;;;;;;;3.27;2.57;;;30.80;62.00;;;;;;4917000;29;20579;-76
2023/08/24 11:04:08;;;;;;;3.67;3.00;;;31.00;61.40;;;;;;4917034;29;20464;-75
2023/08/24 11:06:52;;;;;;;3.27;2.90;;;30.90;61.60;;;;;;4917013;29;20555;-75
2023/08/24 11:09:19;;;;;;;3.13;2.83;;;30.90;61.60;;;;;;4919867;29;20433;-75
2023/08/24 11:11:57;;;;;;;3.63;2.47;;;30.80;61.50;;;;;;4921005;29;20504;-75
2023/08/24 11:14:26;;;;;;;2.83;2.60;;;30.70;62.60;;;;;;4920963;29;20515;-76
2023/08/24 11:16:53;;;;;;;3.13;2.30;;;30.90;62.40;;;;;;4920869;29;20511;-76
2023/08/24 11:19:20;;;;;;;3.70;2.80;;;31.00;61.90;;;;;;4921031;29;20444;-74
2023/08/24 11:21:48;;;;;;;3.43;2.87;;;31.10;61.50;;;;;;4920838;29;20495;-73
2023/08/24 11:24:16;;;;;;;3.30;2.60;;;31.10;61.20;;;;;;4920838;29;20867;-77
2023/08/24 11:26:43;;;;;;;3.40;2.40;;;31.20;61.30;;;;;;4921104;29;20447;-77
2023/08/24 11:29:10;;;;;;;3.87;2.80;;;31.20;61.70;;;;;;4922208;29;20515;-78
2023/08/24 11:31:38;;;;;;;4.10;2.80;;;31.40;62.20;;;;;;4921722;29;20441;-78
2023/08/24 11:34:07;;;;;;;4.03;2.93;;;31.60;60.70;;;;;;4920727;29;20453;-75
2023/08/24 11:36:44;;;;;;;5.00;2.50;;;31.80;60.20;;;;;;4920567;29;20475;-77
2023/08/24 11:39:19;;;;;;;3.17;2.53;;;31.90;59.90;;;;;;4920689;29;20432;-76
2023/08/24 11:41:47;;;;;;;3.30;2.73;;;31.90;59.80;;;;;;4920590;29;20482;-76
2023/08/24 11:44:13;;;;;;;4.50;2.90;;;31.80;60.70;;;;;;4920299;29;20452;-76
2023/08/24 11:46:40;;;;;;;3.97;2.93;;;32.00;61.10;;;;;;4920087;29;20811;-78
2023/08/24 11:49:07;;;;;;;3.03;2.70;;;32.30;61.10;;;;;;4920111;29;20980;-76
2023/08/24 11:51:35;;;;;;;3.00;2.70;;;32.60;59.30;;;;;;4920647;29;20444;-78
2023/08/24 11:54:02;;;;;;;4.07;2.93;;;32.60;58.80;;;;;;4920349;29;20452;-76
2023/08/24 11:56:30;;;;;;;3.17;2.87;;;32.80;59.30;;;;;;4920068;29;21001;-78
2023/08/24 11:58:56;;;;;;;3.17;2.87;;;32.90;58.80;;;;;;4921473;29;20970;-78
2023/08/24 12:01:24;;;;;;;5.40;2.90;;;32.90;58.40;;;;;;4920436;29;20484;-77
2023/08/24 12:03:51;;;;;;;3.23;2.93;;;32.90;58.30;;;;;;4920218;29;20475;-77
2023/08/24 12:06:18;;;;;;;3.43;3.00;;;32.90;58.80;;;;;;4920428;29;20468;-78
2023/08/24 12:08:47;;;;;;;3.13;2.57;;;32.90;58.30;;;;;;4921197;29;20448;-75
2023/08/24 12:11:15;;;;;;;3.53;2.97;;;32.80;58.70;;;;;;4920534;29;20436;-77
2023/08/24 12:13:47;;;;;;;3.13;2.40;;;32.90;59.40;;;;;;4920904;29;20449;-78
2023/08/24 12:16:16;;;;;;;3.40;2.60;;;33.00;59.40;;;;;;4919974;29;20555;-76
2023/08/24 12:18:50;;;;;;;3.00;2.60;;;33.00;58.30;;;;;;4919620;29;20453;-77
2023/08/24 12:21:16;;;;;;;3.63;2.70;;;32.90;58.90;;;;;;4919450;29;20483;-77
2023/08/24 12:23:43;;;;;;;3.43;2.40;;;33.10;58.80;;;;;;4919607;29;20452;-77
2023/08/24 12:26:18;;;;;;;3.03;2.57;;;33.00;59.00;;;;;;4919696;29;20480;-76
2023/08/24 12:28:50;;;;;;;3.20;2.90;;;32.90;58.60;;;;;;4919861;29;20432;-74
2023/08/24 12:31:18;;;;;;;3.00;2.37;;;33.00;58.90;;;;;;4920073;29;20436;-77
2023/08/24 12:33:45;;;;;;;4.10;3.03;;;33.20;59.40;;;;;;4920872;29;20880;-77
2023/08/24 12:36:12;;;;;;;5.80;2.80;;;33.40;58.80;;;;;;4920374;29;20503;-77
2023/08/24 12:38:41;;;;;;;2.67;2.30;;;33.50;59.00;;;;;;4920369;29;20966;-77
2023/08/24 12:41:08;;;;;;;3.97;2.77;;;33.70;57.00;;;;;;4919419;29;20531;-76
2023/08/24 12:43:35;;;;;;;2.60;2.33;;;33.90;56.80;;;;;;4919824;29;20451;-77
2023/08/24 12:46:03;;;;;;;2.83;2.60;;;34.10;56.10;;;;;;4921623;29;20539;-77
2023/08/24 12:48:30;;;;;;;3.40;2.30;;;34.00;55.80;;;;;;4922525;29;20456;-77
2023/08/24 12:50:56;;;;;;;5.37;3.30;;;33.80;56.20;;;;;;4919764;29;20894;-76